createdAt,value
2022-10-21T00:01:41.620Z,11.30
2022-10-21T00:04:08.353Z,11.30
2022-10-21T00:06:35.027Z,11.30
2022-10-21T00:09:01.941Z,11.30
2022-10-21T00:11:28.728Z,11.30
2022-10-21T00:13:55.391Z,11.30
2022-10-21T00:16:22.112Z,11.30
2022-10-21T00:18:49.149Z,11.20
2022-10-21T00:21:17.643Z,11.30
2022-10-21T00:23:44.433Z,11.30
2022-10-21T00:26:11.491Z,11.30
2022-10-21T00:28:38.141Z,11.30
2022-10-21T00:31:12.065Z,11.30
2022-10-21T00:33:38.921Z,11.30
2022-10-21T00:36:07.463Z,11.30
2022-10-21T00:38:35.197Z,11.30
2022-10-21T00:41:01.962Z,11.30
2022-10-21T00:43:28.663Z,11.30
2022-10-21T00:46:03.259Z,11.30
2022-10-21T00:48:35.833Z,11.30
2022-10-21T00:51:07.148Z,11.30
2022-10-21T00:53:35.555Z,11.30
2022-10-21T00:56:05.797Z,11.30
2022-10-21T00:58:33.672Z,11.30
2022-10-21T01:01:01.583Z,11.30
2022-10-21T01:03:29.205Z,11.30
2022-10-21T01:05:57.504Z,11.30
2022-10-21T01:08:24.608Z,11.30
2022-10-21T01:10:51.913Z,11.30
2022-10-21T01:13:33.841Z,11.30
2022-10-21T01:16:09.817Z,11.30
2022-10-21T01:18:47.544Z,11.30
2022-10-21T01:21:17.440Z,11.30
2022-10-21T01:23:44.081Z,11.40
2022-10-21T01:26:22.828Z,11.40
2022-10-21T01:28:55.645Z,11.40
2022-10-21T01:31:37.625Z,11.50
2022-10-21T01:34:13.250Z,11.40
2022-10-21T01:36:43.287Z,11.50
2022-10-21T01:39:09.977Z,11.40
2022-10-21T01:41:40.239Z,11.40
2022-10-21T01:44:15.786Z,11.40
2022-10-21T01:46:45.413Z,11.40
2022-10-21T01:49:25.257Z,11.40
2022-10-21T01:51:52.602Z,11.40
2022-10-21T01:54:22.754Z,11.40
2022-10-21T01:56:50.643Z,11.40
2022-10-21T01:59:18.192Z,11.40
2022-10-21T02:01:46.477Z,11.40
2022-10-21T02:04:13.605Z,11.40
2022-10-21T02:06:40.268Z,11.40
2022-10-21T02:09:07.025Z,11.40
2022-10-21T02:11:35.406Z,11.40
2022-10-21T02:14:15.046Z,11.40
2022-10-21T02:16:42.638Z,11.40
2022-10-21T02:19:16.404Z,11.40
2022-10-21T02:21:43.441Z,11.40
2022-10-21T02:24:10.078Z,11.50
2022-10-21T02:26:36.800Z,11.40
2022-10-21T02:29:03.882Z,11.40
2022-10-21T02:31:49.158Z,11.40
2022-10-21T02:34:15.833Z,11.40
2022-10-21T02:36:52.170Z,11.40
2022-10-21T02:39:21.019Z,11.40
2022-10-21T02:41:48.112Z,11.40
2022-10-21T02:44:15.238Z,11.40
2022-10-21T02:46:42.784Z,11.40
2022-10-21T02:49:09.729Z,11.40
2022-10-21T02:51:36.519Z,11.40
2022-10-21T02:54:03.313Z,11.40
2022-10-21T02:58:56.663Z,11.50
2022-10-21T03:01:23.444Z,11.50
2022-10-21T03:03:50.175Z,11.50
2022-10-21T03:06:16.953Z,11.50
2022-10-21T03:08:43.793Z,11.60
2022-10-21T03:11:10.546Z,11.60
2022-10-21T03:13:37.358Z,11.60
2022-10-21T03:16:04.078Z,11.70
2022-10-21T03:18:30.764Z,11.70
2022-10-21T03:20:57.457Z,11.70
2022-10-21T03:23:24.119Z,11.70
2022-10-21T03:25:50.899Z,11.70
2022-10-21T03:28:19.898Z,11.70
2022-10-21T03:30:46.610Z,11.70
2022-10-21T03:33:13.350Z,11.70
2022-10-21T03:35:40.073Z,11.70
2022-10-21T03:38:06.914Z,11.70
2022-10-21T03:40:33.620Z,11.70
2022-10-21T03:43:00.315Z,11.70
2022-10-21T03:45:27.086Z,11.70
2022-10-21T03:47:53.980Z,11.70
2022-10-21T03:50:23.786Z,11.70
2022-10-21T03:52:53.052Z,11.70
2022-10-21T03:55:21.019Z,11.70
2022-10-21T03:57:48.275Z,11.70
2022-10-21T04:00:15.281Z,11.70
2022-10-21T04:02:42.201Z,11.60
2022-10-21T04:05:09.236Z,11.60
2022-10-21T04:07:36.051Z,11.60
2022-10-21T04:10:03.391Z,11.60
2022-10-21T04:12:30.114Z,11.50
2022-10-21T04:14:56.882Z,11.50
2022-10-21T04:17:23.666Z,11.50
2022-10-21T04:19:50.495Z,11.50
2022-10-21T04:22:17.276Z,11.50
2022-10-21T04:24:44.167Z,11.50
2022-10-21T04:27:10.974Z,11.50
2022-10-21T04:29:37.618Z,11.50
2022-10-21T04:32:04.445Z,11.50
2022-10-21T04:34:31.079Z,11.40
2022-10-21T04:37:01.065Z,11.40
2022-10-21T04:39:30.985Z,11.40
2022-10-21T04:41:57.739Z,11.40
2022-10-21T04:44:24.382Z,11.30
2022-10-21T04:46:52.207Z,11.30
2022-10-21T04:49:19.006Z,11.30
2022-10-21T04:51:45.676Z,11.30
2022-10-21T04:54:13.516Z,11.20
2022-10-21T04:56:40.687Z,11.20
2022-10-21T04:59:07.467Z,11.20
2022-10-21T05:01:34.250Z,11.20
2022-10-21T05:04:00.978Z,11.20
2022-10-21T05:06:27.658Z,11.20
2022-10-21T05:08:54.454Z,11.10
2022-10-21T05:11:21.252Z,11.10
2022-10-21T05:13:48.011Z,11.10
2022-10-21T05:16:14.691Z,11.10
2022-10-21T05:18:41.438Z,11.10
2022-10-21T05:21:08.253Z,11.00
2022-10-21T05:23:35.047Z,11.10
2022-10-21T05:26:01.717Z,11.10
2022-10-21T05:28:28.416Z,11.00
2022-10-21T05:30:55.214Z,11.00
2022-10-21T05:33:21.933Z,11.00
2022-10-21T05:36:00.914Z,11.00
2022-10-21T05:38:30.812Z,11.00
2022-10-21T05:40:57.685Z,11.00
2022-10-21T05:43:24.481Z,11.00
2022-10-21T05:45:51.228Z,11.00
2022-10-21T05:48:18.331Z,11.00
2022-10-21T05:50:45.742Z,11.00
2022-10-21T05:53:12.644Z,11.00
2022-10-21T05:55:39.670Z,11.00
2022-10-21T05:58:06.329Z,11.00
2022-10-21T06:00:33.054Z,11.00
2022-10-21T06:02:59.751Z,10.90
2022-10-21T06:05:26.563Z,10.90
2022-10-21T06:07:53.387Z,10.90
2022-10-21T06:10:20.254Z,10.90
2022-10-21T06:12:47.036Z,10.90
2022-10-21T06:15:13.868Z,11.00
2022-10-21T06:17:40.921Z,10.90
2022-10-21T06:20:08.004Z,10.90
2022-10-21T06:22:34.749Z,11.00
2022-10-21T06:25:01.531Z,10.90
2022-10-21T06:27:28.380Z,10.90
2022-10-21T06:29:55.105Z,10.90
2022-10-21T06:32:21.738Z,11.00
2022-10-21T06:34:48.413Z,11.00
2022-10-21T06:37:15.250Z,11.00
2022-10-21T06:39:42.112Z,11.00
2022-10-21T06:42:08.868Z,11.00
2022-10-21T06:44:41.720Z,11.00
2022-10-21T06:47:08.797Z,11.00
2022-10-21T06:49:35.608Z,11.00
2022-10-21T06:52:02.268Z,11.00
2022-10-21T06:54:29.035Z,11.00
2022-10-21T06:56:55.697Z,11.10
2022-10-21T06:59:22.481Z,11.10
2022-10-21T07:01:59.754Z,11.10
2022-10-21T07:04:27.645Z,11.20
2022-10-21T07:06:54.367Z,11.20
2022-10-21T07:09:21.293Z,11.20
2022-10-21T07:11:48.016Z,11.20
2022-10-21T07:14:14.788Z,11.30
2022-10-21T07:16:41.463Z,11.30
2022-10-21T07:19:09.906Z,11.30
2022-10-21T07:21:36.615Z,11.40
2022-10-21T07:24:03.377Z,11.40
2022-10-21T07:26:31.372Z,11.50
2022-10-21T07:29:00.266Z,11.50
2022-10-21T07:31:27.838Z,11.50
2022-10-21T07:33:55.057Z,11.50
2022-10-21T07:36:23.688Z,11.50
2022-10-21T07:38:50.848Z,11.50
2022-10-21T07:41:18.753Z,11.50
2022-10-21T07:43:45.576Z,11.60
2022-10-21T07:46:12.392Z,11.60
2022-10-21T07:48:39.192Z,11.60
2022-10-21T07:51:10.765Z,11.60
2022-10-21T07:53:37.479Z,11.70
2022-10-21T07:56:06.444Z,11.70
2022-10-21T07:58:33.434Z,11.70
2022-10-21T08:01:01.305Z,11.70
2022-10-21T08:03:28.393Z,11.80
2022-10-21T08:05:55.470Z,11.80
2022-10-21T08:08:22.609Z,11.90
2022-10-21T08:13:17.410Z,12.00
2022-10-21T08:15:44.784Z,12.00
2022-10-21T08:18:11.572Z,12.00
2022-10-21T08:20:39.419Z,12.10
2022-10-21T08:23:06.535Z,12.10
2022-10-21T08:25:33.589Z,12.10
2022-10-21T08:28:00.237Z,12.10
2022-10-21T08:30:30.083Z,12.20
2022-10-21T08:32:56.831Z,12.20
2022-10-21T08:35:23.577Z,12.20
2022-10-21T08:37:50.521Z,12.30
2022-10-21T08:40:18.189Z,12.20
2022-10-21T08:42:45.534Z,12.30
2022-10-21T08:45:19.066Z,12.30
2022-10-21T08:47:49.355Z,12.30
2022-10-21T08:50:17.102Z,12.40
2022-10-21T08:52:51.824Z,12.40
2022-10-21T08:55:24.165Z,12.40
2022-10-21T08:57:53.517Z,12.40
2022-10-21T09:00:21.441Z,12.50
2022-10-21T09:03:16.038Z,12.50
2022-10-21T09:05:42.821Z,12.60
2022-10-21T09:08:28.449Z,12.60
2022-10-21T09:11:07.613Z,12.70
2022-10-21T09:13:59.863Z,12.70
2022-10-21T09:16:42.005Z,12.80
2022-10-21T09:19:19.315Z,12.80
2022-10-21T09:21:45.973Z,12.90
2022-10-21T09:24:13.848Z,12.90
2022-10-21T09:26:41.963Z,13.00
2022-10-21T09:29:27.550Z,13.00
2022-10-21T09:32:12.816Z,13.00
2022-10-21T09:34:40.057Z,13.10
2022-10-21T09:37:12.070Z,13.10
2022-10-21T09:39:47.348Z,13.10
2022-10-21T09:42:34.782Z,13.10
2022-10-21T09:45:00.730Z,13.20
2022-10-21T09:47:27.408Z,13.20
2022-10-21T09:50:12.519Z,13.20
2022-10-21T09:52:39.629Z,13.30
2022-10-21T09:55:11.907Z,13.30
2022-10-21T09:57:48.310Z,13.30
2022-10-21T10:00:15.116Z,13.30
2022-10-21T10:02:44.173Z,13.30
2022-10-21T10:05:29.792Z,13.30
2022-10-21T10:07:56.510Z,13.30
2022-10-21T10:10:32.192Z,13.40
2022-10-21T10:12:59.566Z,13.40
2022-10-21T10:15:34.023Z,13.50
2022-10-21T10:18:01.120Z,13.50
2022-10-21T10:20:27.812Z,13.50
2022-10-21T10:22:58.311Z,13.60
2022-10-21T10:25:28.516Z,13.60
2022-10-21T10:27:59.462Z,13.70
2022-10-21T10:30:29.227Z,13.70
2022-10-21T10:32:56.341Z,13.70
2022-10-21T10:35:26.261Z,13.80
2022-10-21T10:37:53.561Z,13.80
2022-10-21T10:40:25.078Z,13.90
2022-10-21T10:42:54.761Z,13.90
2022-10-21T10:45:22.629Z,14.00
2022-10-21T10:47:52.914Z,14.00
2022-10-21T10:50:37.841Z,14.10
2022-10-21T10:53:24.963Z,14.10
2022-10-21T10:55:55.488Z,14.20
2022-10-21T10:58:26.848Z,14.20
2022-10-21T11:00:57.232Z,14.30
2022-10-21T11:03:28.026Z,14.30
2022-10-21T11:06:01.035Z,14.40
2022-10-21T11:08:33.305Z,14.40
2022-10-21T11:11:02.995Z,14.40
2022-10-21T11:13:29.938Z,14.50
2022-10-21T11:15:56.624Z,14.50
2022-10-21T11:18:42.039Z,14.50
2022-10-21T11:21:24.168Z,14.60
2022-10-21T11:23:52.307Z,14.60
2022-10-21T11:26:40.195Z,14.60
2022-10-21T11:29:09.890Z,14.70
2022-10-21T11:32:12.559Z,14.80
2022-10-21T11:34:51.753Z,14.80
2022-10-21T11:37:24.617Z,14.90
2022-10-21T11:39:51.597Z,14.90
2022-10-21T11:42:22.454Z,15.00
2022-10-21T11:45:15.593Z,15.00
2022-10-21T11:47:46.221Z,15.00
2022-10-21T11:50:15.954Z,15.10
2022-10-21T11:52:45.741Z,15.20
2022-10-21T11:55:21.507Z,15.20
2022-10-21T11:58:17.634Z,15.30
2022-10-21T12:00:50.339Z,15.20
2022-10-21T12:03:19.975Z,15.30
2022-10-21T12:05:46.798Z,15.30
2022-10-21T12:08:13.497Z,15.30
2022-10-21T12:10:43.254Z,15.30
2022-10-21T12:13:31.017Z,15.30
2022-10-21T12:16:04.869Z,15.30
2022-10-21T12:18:32.464Z,15.40
2022-10-21T12:20:59.728Z,15.40
2022-10-21T12:23:29.505Z,15.50
2022-10-21T12:26:03.664Z,15.50
2022-10-21T12:28:38.795Z,15.50
2022-10-21T12:31:17.620Z,15.50
2022-10-21T12:33:44.903Z,15.50
2022-10-21T12:36:11.544Z,15.50
2022-10-21T12:38:49.728Z,15.50
2022-10-21T12:41:22.430Z,15.50
2022-10-21T12:44:12.372Z,15.60
2022-10-21T12:46:46.948Z,15.60
2022-10-21T12:49:24.928Z,15.60
2022-10-21T12:51:51.628Z,15.60
2022-10-21T12:54:21.379Z,15.60
2022-10-21T12:56:50.845Z,15.60
2022-10-21T12:59:28.983Z,15.50
2022-10-21T13:02:09.286Z,15.50
2022-10-21T13:04:35.932Z,15.60
2022-10-21T13:07:04.244Z,15.60
2022-10-21T13:09:31.909Z,15.60
2022-10-21T13:12:04.917Z,15.60
2022-10-21T13:14:51.102Z,15.60
2022-10-21T13:17:20.922Z,15.60
2022-10-21T13:19:48.327Z,15.60
2022-10-21T13:22:17.372Z,15.60
2022-10-21T13:24:44.686Z,15.60
2022-10-21T13:27:31.736Z,15.60
2022-10-21T13:29:59.700Z,15.60
2022-10-21T13:32:27.756Z,15.60
2022-10-21T13:34:54.586Z,15.60
2022-10-21T13:37:30.532Z,15.70
2022-10-21T13:40:07.801Z,15.70
2022-10-21T13:42:40.271Z,15.70
2022-10-21T13:45:22.462Z,15.70
2022-10-21T13:47:58.955Z,15.70
2022-10-21T13:50:28.276Z,15.70
2022-10-21T13:52:55.107Z,15.70
2022-10-21T13:55:25.458Z,15.70
2022-10-21T13:57:53.462Z,15.70
2022-10-21T14:00:22.148Z,15.70
2022-10-21T14:02:50.207Z,15.70
2022-10-21T14:05:27.376Z,15.70
2022-10-21T14:07:54.123Z,15.80
2022-10-21T14:10:21.124Z,15.70
2022-10-21T14:12:48.326Z,15.70
2022-10-21T14:15:21.732Z,15.80
2022-10-21T14:17:50.338Z,15.80
2022-10-21T14:20:20.704Z,15.80
2022-10-21T14:22:48.652Z,15.80
2022-10-21T14:25:16.125Z,15.80
2022-10-21T14:27:46.874Z,15.80
2022-10-21T14:30:24.721Z,15.80
2022-10-21T14:32:51.992Z,15.80
2022-10-21T14:35:18.672Z,15.80
2022-10-21T14:37:46.175Z,15.80
2022-10-21T14:40:18.952Z,15.80
2022-10-21T14:42:48.556Z,15.80
2022-10-21T14:45:20.885Z,15.80
2022-10-21T14:47:51.801Z,15.80
2022-10-21T14:50:21.311Z,15.80
2022-10-21T14:52:48.843Z,15.80
2022-10-21T14:55:17.066Z,15.80
2022-10-21T14:57:45.395Z,15.70
2022-10-21T15:00:29.212Z,15.70
2022-10-21T15:02:57.911Z,15.70
2022-10-21T15:05:31.085Z,15.70
2022-10-21T15:08:16.654Z,15.80
2022-10-21T15:10:43.497Z,15.70
2022-10-21T15:13:17.442Z,15.80
2022-10-21T15:15:53.387Z,15.80
2022-10-21T15:18:20.633Z,15.80
2022-10-21T15:20:51.821Z,15.70
2022-10-21T15:23:20.271Z,15.80
2022-10-21T15:25:50.663Z,15.70
2022-10-21T15:28:18.022Z,15.70
2022-10-21T15:30:45.075Z,15.70
2022-10-21T15:33:12.676Z,15.70
2022-10-21T15:35:39.360Z,15.70
2022-10-21T15:38:06.099Z,15.70
2022-10-21T15:40:33.051Z,15.70
2022-10-21T15:42:59.944Z,15.70
2022-10-21T15:45:26.880Z,15.70
2022-10-21T15:47:54.798Z,15.70
2022-10-21T15:50:22.864Z,15.60
2022-10-21T15:52:49.674Z,15.60
2022-10-21T15:55:16.497Z,15.60
2022-10-21T15:57:43.246Z,15.60
2022-10-21T16:00:15.193Z,15.60
2022-10-21T16:02:42.031Z,15.60
2022-10-21T16:05:09.508Z,15.60
2022-10-21T16:07:37.049Z,15.50
2022-10-21T16:10:34.421Z,15.50
2022-10-21T16:13:01.272Z,15.50
2022-10-21T16:15:27.989Z,15.50
2022-10-21T16:17:56.341Z,15.50
2022-10-21T16:20:25.241Z,15.50
2022-10-21T16:22:51.984Z,15.40
2022-10-21T16:25:18.834Z,15.50
2022-10-21T16:27:55.761Z,15.50
2022-10-21T16:30:27.888Z,15.40
2022-10-21T16:32:54.698Z,15.40
2022-10-21T16:35:21.694Z,15.50
2022-10-21T16:37:48.639Z,15.40
2022-10-21T16:40:20.481Z,15.40
2022-10-21T16:42:47.320Z,15.30
2022-10-21T16:45:14.623Z,15.30
2022-10-21T16:47:42.762Z,15.30
2022-10-21T16:50:11.724Z,15.30
2022-10-21T16:52:38.969Z,15.30
2022-10-21T16:55:07.253Z,15.30
2022-10-21T16:57:34.022Z,15.30
2022-10-21T17:00:00.655Z,15.30
2022-10-21T17:02:27.432Z,15.30
2022-10-21T17:04:54.102Z,15.30
2022-10-21T17:07:20.783Z,15.20
2022-10-21T17:09:47.463Z,15.20
2022-10-21T17:12:14.166Z,15.20
2022-10-21T17:14:40.844Z,15.20
2022-10-21T17:17:07.568Z,15.20
2022-10-21T17:19:34.299Z,15.20
2022-10-21T17:22:01.011Z,15.20
2022-10-21T17:24:27.971Z,15.20
2022-10-21T17:26:56.143Z,15.20
2022-10-21T17:29:22.934Z,15.20
2022-10-21T17:31:49.832Z,15.20
2022-10-21T17:34:27.764Z,15.20
2022-10-21T17:36:54.645Z,15.20
2022-10-21T17:39:21.387Z,15.20
2022-10-21T17:44:14.814Z,15.20
2022-10-21T17:46:41.572Z,15.20
2022-10-21T17:49:09.286Z,15.30
2022-10-21T17:51:36.130Z,15.20
2022-10-21T17:54:02.817Z,15.30
2022-10-21T17:56:29.513Z,15.30
2022-10-21T17:58:56.957Z,15.30
2022-10-21T18:01:25.043Z,15.30
2022-10-21T18:03:52.157Z,15.30
2022-10-21T18:06:18.969Z,15.30
2022-10-21T18:08:45.793Z,15.40
2022-10-21T18:11:14.425Z,15.30
2022-10-21T18:13:41.759Z,15.30
2022-10-21T18:16:10.588Z,15.40
2022-10-21T18:18:38.075Z,15.30
2022-10-21T18:21:06.919Z,15.40
2022-10-21T18:23:35.282Z,15.40
2022-10-21T18:26:04.022Z,15.40
2022-10-21T18:28:32.318Z,15.40
2022-10-21T18:30:59.075Z,15.40
2022-10-21T18:33:26.535Z,15.40
2022-10-21T18:35:53.364Z,15.40
2022-10-21T18:38:20.076Z,15.40
2022-10-21T18:40:56.512Z,15.40
2022-10-21T18:43:28.837Z,15.40
2022-10-21T18:45:55.914Z,15.40
2022-10-21T18:48:22.639Z,15.40
2022-10-21T18:50:49.336Z,15.50
2022-10-21T18:53:16.061Z,15.50
2022-10-21T18:55:42.755Z,15.50
2022-10-21T18:58:09.483Z,15.50
2022-10-21T19:00:36.590Z,15.50
2022-10-21T19:03:03.436Z,15.50
2022-10-21T19:05:31.047Z,15.50
2022-10-21T19:08:00.797Z,15.50
2022-10-21T19:10:27.503Z,15.50
2022-10-21T19:12:54.964Z,15.50
2022-10-21T19:15:21.764Z,15.50
2022-10-21T19:17:48.512Z,15.50
2022-10-21T19:20:15.254Z,15.60
2022-10-21T19:22:41.999Z,15.60
2022-10-21T19:25:09.097Z,15.60
2022-10-21T19:27:35.845Z,15.60
2022-10-21T19:30:02.645Z,15.60
2022-10-21T19:32:29.608Z,15.60
2022-10-21T19:34:56.352Z,15.60
2022-10-21T19:37:23.019Z,15.60
2022-10-21T19:39:49.700Z,15.60
2022-10-21T19:42:16.561Z,15.60
2022-10-21T19:44:43.426Z,15.60
2022-10-21T19:47:10.258Z,15.60
2022-10-21T19:49:37.043Z,15.50
2022-10-21T19:52:03.910Z,15.50
2022-10-21T19:54:30.933Z,15.50
2022-10-21T19:56:57.827Z,15.50
2022-10-21T19:59:24.627Z,15.60
2022-10-21T20:01:51.346Z,15.50
2022-10-21T20:04:18.197Z,15.50
2022-10-21T20:06:45.068Z,15.60
2022-10-21T20:09:13.512Z,15.60
2022-10-21T20:11:41.004Z,15.60
2022-10-21T20:14:07.924Z,15.60
2022-10-21T20:16:39.241Z,15.60
2022-10-21T20:19:06.836Z,15.60
2022-10-21T20:21:40.293Z,15.60
2022-10-21T20:24:07.677Z,15.60
2022-10-21T20:26:34.890Z,15.50
2022-10-21T20:29:02.224Z,15.60
2022-10-21T20:31:34.878Z,15.50
2022-10-21T20:34:06.577Z,15.50
2022-10-21T20:36:39.757Z,15.50
2022-10-21T20:39:10.593Z,15.50
2022-10-21T20:41:45.037Z,15.50
2022-10-21T20:44:18.614Z,15.50
2022-10-21T20:47:04.795Z,15.50
2022-10-21T20:49:38.090Z,15.50
2022-10-21T20:52:05.445Z,15.50
2022-10-21T20:54:35.765Z,15.50
2022-10-21T20:57:06.912Z,15.50
2022-10-21T20:59:39.692Z,15.50
2022-10-21T21:02:09.581Z,15.50
2022-10-21T21:04:38.441Z,15.50
2022-10-21T21:07:29.711Z,15.40
2022-10-21T21:10:02.658Z,15.40
2022-10-21T21:12:40.586Z,15.40
2022-10-21T21:15:08.553Z,15.40
2022-10-21T21:17:36.101Z,15.40
2022-10-21T21:20:06.146Z,15.40
2022-10-21T21:22:38.915Z,15.30
2022-10-21T21:25:19.443Z,15.30
2022-10-21T21:27:54.627Z,15.30
2022-10-21T21:30:33.381Z,15.20
2022-10-21T21:33:00.606Z,15.20
2022-10-21T21:35:31.034Z,15.20
2022-10-21T21:38:00.665Z,15.20
2022-10-21T21:40:39.833Z,15.20
2022-10-21T21:43:09.850Z,15.20
2022-10-21T21:45:48.005Z,15.20
2022-10-21T21:48:21.758Z,15.10
2022-10-21T21:50:51.644Z,15.10
2022-10-21T21:53:26.345Z,15.10
2022-10-21T21:56:00.941Z,15.10
2022-10-21T21:58:31.467Z,15.10
2022-10-21T22:01:07.385Z,15.10
2022-10-21T22:03:37.371Z,15.10
2022-10-21T22:06:11.614Z,15.10
2022-10-21T22:08:40.277Z,15.10
2022-10-21T22:11:09.606Z,15.00
2022-10-21T22:13:43.482Z,15.10
2022-10-21T22:16:16.104Z,15.10
2022-10-21T22:18:43.928Z,15.10
2022-10-21T22:21:17.665Z,15.10
2022-10-21T22:23:52.901Z,15.10
2022-10-21T22:26:34.011Z,15.10
2022-10-21T22:29:01.163Z,15.10
2022-10-21T22:31:32.870Z,15.10
2022-10-21T22:34:05.279Z,15.20
2022-10-21T22:36:36.095Z,15.20
2022-10-21T22:39:12.652Z,15.20
2022-10-21T22:41:46.111Z,15.20
2022-10-21T22:44:18.742Z,15.20
2022-10-21T22:46:50.663Z,15.20
2022-10-21T22:49:19.004Z,15.20
2022-10-21T22:51:48.309Z,15.20
2022-10-21T22:54:35.990Z,15.20
2022-10-21T22:57:01.958Z,15.20
2022-10-21T22:59:28.768Z,15.20
2022-10-21T23:01:55.531Z,15.20
2022-10-21T23:04:22.364Z,15.30
2022-10-21T23:06:49.031Z,15.20
2022-10-21T23:09:15.866Z,15.20
2022-10-21T23:11:42.597Z,15.20
2022-10-21T23:14:09.610Z,15.20
2022-10-21T23:16:37.084Z,15.20
2022-10-21T23:19:04.563Z,15.20
2022-10-21T23:21:31.416Z,15.20
2022-10-21T23:23:58.168Z,15.20
2022-10-21T23:26:24.960Z,15.30
2022-10-21T23:28:51.829Z,15.30
2022-10-21T23:31:19.710Z,15.30
2022-10-21T23:33:46.633Z,15.30
2022-10-21T23:36:15.967Z,15.20
2022-10-21T23:38:42.855Z,15.30
2022-10-21T23:41:09.761Z,15.30
2022-10-21T23:43:36.472Z,15.20
2022-10-21T23:46:03.211Z,15.30
2022-10-21T23:48:30.101Z,15.30
2022-10-21T23:50:56.919Z,15.30
2022-10-21T23:53:23.705Z,15.30
2022-10-21T23:55:51.726Z,15.20
2022-10-21T23:58:18.605Z,15.30
